Terminal Aerodrome Forecast
Issued by NWS

Home | Current Version | Previous Version | Text Only | Print | Product List | Glossary On
Versions: 1 2 3 4 5 6 7 8 9 10 11 12
000
FTPA31 PHFO 211120
TAFHJR
TAF
PHJR 211120Z 2112/2212 06009KT P6SM FEW035 FEW050
     FM211900 07008KT P6SM FEW035 FEW050
     FM220500 06005KT P6SM VCSH SCT025 BKN050=

USA.gov is the U.S. government's official web portal to all federal, state and local government web resources and services.